»·PEaware :: N445SN L52-L88

N445SN :: L52-L88

FLIGHT INFORMATION

Flight Status: Arrived
Operator: Privately registered:
United States
More flights under this callsign
Pilot: Jeremy W. (20490)
Aircraft: CESSNA 172 SKYHAWK
(C172)
More flights by this aircraft type
Origin: L52 Oceano Co
United States
Destination: L88 New Cuyama
United States
More flights between these airports :: More routes between these airports
Route:
File this flight plan on PilotEdge
Remarks:
Altitude:
(Current/Filed)
7,500ft
Speed:
(Current/Filed)
124kts
Departed: 22-Sep-18 06:53 PM
Arrived: 22-Sep-18 07:25 PM
Distance/Time
Traveled:
47nm/0:32
Distance/Time
To Go:
Arrived

Flight Plot

Page will automatically refresh every two minutes.


Map Options




Map Legend


Flown Route
Filed Route
Departure Airport
Arrival Airport
Navaid (VOR, NDB)
Fix

Horizontal Profiles

Position Reports

Time Latitude Longitude Heading Altitude Ground
Speed
22-Sep-18 18:08 35.102465 -120.622783 34 16ft 0kts
22-Sep-18 18:09 35.102465 -120.622783 34 16ft 0kts
22-Sep-18 18:10 35.102465 -120.622783 34 16ft 0kts
22-Sep-18 18:11 35.102465 -120.622783 34 16ft 0kts
22-Sep-18 18:12 35.102465 -120.622783 34 16ft 0kts
22-Sep-18 18:13 35.102465 -120.622783 34 16ft 0kts
22-Sep-18 18:14 35.102465 -120.622783 34 16ft 0kts
22-Sep-18 18:15 35.102465 -120.622783 34 16ft 0kts
22-Sep-18 18:16 35.102465 -120.622783 34 16ft 0kts
22-Sep-18 18:17 35.102465 -120.622783 34 16ft 0kts
22-Sep-18 18:18 35.102465 -120.622783 34 16ft 0kts
22-Sep-18 18:19 35.102465 -120.622783 34 16ft 0kts
22-Sep-18 18:20 35.102465 -120.622783 34 16ft 0kts
22-Sep-18 18:21 35.102465 -120.622783 34 16ft 0kts
22-Sep-18 18:22 35.102465 -120.622783 34 16ft 0kts
22-Sep-18 18:23 35.102465 -120.622783 34 16ft 0kts
22-Sep-18 18:24 35.102465 -120.622783 34 16ft 0kts
22-Sep-18 18:25 35.102465 -120.622783 34 16ft 0kts
22-Sep-18 18:26 35.102465 -120.622783 34 16ft 0kts
22-Sep-18 18:27 35.102465 -120.622783 34 16ft 0kts
22-Sep-18 18:28 35.102465 -120.622783 34 16ft 0kts
22-Sep-18 18:29 35.102465 -120.622783 34 16ft 0kts
22-Sep-18 18:30 35.102465 -120.622783 34 16ft 0kts
22-Sep-18 18:31 35.102465 -120.622783 34 16ft 0kts
22-Sep-18 18:32 35.102465 -120.622783 34 16ft 0kts
22-Sep-18 18:33 35.102465 -120.622783 34 16ft 0kts
22-Sep-18 18:34 35.102465 -120.622783 34 16ft 0kts
22-Sep-18 18:35 35.102465 -120.622783 34 16ft 0kts
22-Sep-18 18:36 35.102465 -120.622783 34 16ft 0kts
22-Sep-18 18:37 35.102465 -120.622783 34 16ft 0kts
22-Sep-18 18:38 35.102511 -120.622744 32 17ft 2kts
22-Sep-18 18:39 35.102512 -120.622744 31 17ft 0kts
22-Sep-18 18:40 35.103091 -120.624062 213 15ft 0kts
22-Sep-18 18:41 35.103060 -120.624089 217 15ft 0kts
22-Sep-18 18:42 35.103047 -120.624111 208 15ft 0kts
22-Sep-18 18:43 35.103036 -120.624119 212 15ft 0kts
22-Sep-18 18:44 35.103036 -120.624119 212 15ft 0kts
22-Sep-18 18:45 35.103036 -120.624119 212 15ft 0kts
22-Sep-18 18:46 35.103025 -120.624156 329 15ft 0kts
22-Sep-18 18:48 35.103077 -120.624070 194 15ft 0kts
22-Sep-18 18:49 35.103077 -120.624070 194 15ft 0kts
22-Sep-18 18:50 35.103077 -120.624070 194 15ft 0kts
22-Sep-18 18:51 35.102002 -120.624063 124 14ft 9kts
22-Sep-18 18:52 35.100132 -120.620556 124 17ft 11kts
22-Sep-18 18:53 35.099606 -120.619549 105 17ft 0kts
22-Sep-18 18:54 35.099603 -120.619430 79 17ft 5kts
22-Sep-18 18:55 35.101098 -120.633429 215 381ft 89kts
22-Sep-18 18:56 35.084302 -120.609777 123 939ft 120kts
22-Sep-18 18:57 35.084125 -120.571189 110 1425ft 119kts
22-Sep-18 18:58 35.091915 -120.540345 45 1977ft 114kts
22-Sep-18 18:59 35.110665 -120.515023 22 2472ft 111kts
22-Sep-18 19:00 35.119758 -120.478232 81 2978ft 117kts
22-Sep-18 19:01 35.113865 -120.439460 103 3518ft 118kts
22-Sep-18 19:02 35.105333 -120.400824 104 4025ft 118kts
22-Sep-18 19:03 35.096637 -120.362405 104 4532ft 118kts
22-Sep-18 19:04 35.087874 -120.323973 106 5030ft 118kts
22-Sep-18 19:05 35.079080 -120.285560 106 5523ft 117kts
22-Sep-18 19:06 35.070289 -120.247554 108 6016ft 116kts
22-Sep-18 19:07 35.061511 -120.209816 109 6509ft 114kts
22-Sep-18 19:08 35.052997 -120.172797 110 6999ft 112kts
22-Sep-18 19:09 35.044665 -120.136573 112 7490ft 109kts
22-Sep-18 19:10 35.035383 -120.096609 111 7492ft 128kts
22-Sep-18 19:11 35.025775 -120.055008 111 7488ft 125kts
22-Sep-18 19:12 35.016274 -120.014100 111 7245ft 128kts
22-Sep-18 19:13 35.006762 -119.973061 112 6732ft 118kts
22-Sep-18 19:14 34.997878 -119.934875 111 6085ft 119kts
22-Sep-18 19:15 34.988826 -119.895916 110 5379ft 120kts
22-Sep-18 19:16 34.979679 -119.856602 110 4672ft 120kts
22-Sep-18 19:17 34.970513 -119.817268 109 3966ft 120kts
22-Sep-18 19:18 34.961469 -119.778463 109 3404ft 109kts
22-Sep-18 19:19 34.952739 -119.740979 109 3359ft 119kts
22-Sep-18 19:20 34.939270 -119.706412 146 2667ft 95kts
22-Sep-18 19:21 34.936598 -119.715884 30 2948ft 104kts
22-Sep-18 19:22 34.931608 -119.685020 116 2868ft 78kts
22-Sep-18 19:23 34.934806 -119.669936 281 2503ft 66kts
22-Sep-18 19:24 34.946325 -119.696118 251 2716ft 97kts
22-Sep-18 19:25 34.926044 -119.684701 124 2962ft 90kts
22-Sep-18 19:26 34.935789 -119.675161 293 2422ft 70kts
22-Sep-18 19:27 34.940629 -119.687256 296 2169ft 22kts
22-Sep-18 19:28 34.942726 -119.690870 119 2155ft 5kts
22-Sep-18 19:29 34.942700 -119.690816 119 2156ft 0kts
22-Sep-18 19:30 34.942700 -119.690816 119 2156ft 0kts

Navigation Log

Ident Type
Flight plan parsing failed, navigation log unavailable